Terminal Aerodrome Forecast
Issued by NWS Sioux Falls, SD

Home | Current Version | Previous Version | Graphics & Text | Print | Product List | Glossary On
Versions: 1 2 3 4 5 6 7 8 9 10 11 12 13 14 15 16 17 18 19 20 21 22 23 24 25 26 27 28
000
FTUS43 KFSD 040520
TAFSUX
TAF
KSUX 040520Z 0406/0506 33008KT P6SM BKN180
     FM041200 30006KT P6SM SCT200
     FM041600 33013KT P6SM BKN035
     FM041800 34017G25KT P6SM SCT025 BKN035
     FM042000 34016G23KT P6SM SCT030
     FM042330 35011KT P6SM SKC
     FM050400 01004KT P6SM SKC=

USA.gov is the U.S. government's official web portal to all federal, state and local government web resources and services.